Time;durP1;ratioP1;P1;durP2;ratioP2;P2;SDS_P1;SDS_P2;PMS_P1;PMS_P2;Temp;Humidity;BMP_temperature;BMP_pressure;BME280_temperature;BME280_humidity;BME280_pressure;Samples;Min_cycle;Max_cycle;Signal;HPM_P1;HPM_P2
2023/05/17 00:04:32;;;;;;;4.03;2.42;;;16.30;85.20;;;;;;10911421;32;20045;-73
2023/05/17 00:10:35;;;;;;;2.08;1.85;;;16.30;85.20;;;;;;10911277;32;20020;-73
2023/05/17 00:16:41;;;;;;;3.20;2.25;;;16.30;85.30;;;;;;10895895;32;20065;-73
2023/05/17 00:22:46;;;;;;;2.80;2.00;;;16.40;85.20;;;;;;10910876;32;20188;-73
2023/05/17 00:28:48;;;;;;;1.55;1.42;;;16.30;85.10;;;;;;10910605;32;20050;-73
2023/05/17 00:35:26;;;;;;;2.80;1.60;;;16.40;85.20;;;;;;10897570;32;20023;-76
2023/05/17 00:41:28;;;;;;;1.70;1.60;;;16.20;85.10;;;;;;10895531;32;20031;-73
2023/05/17 00:48:24;;;;;;;3.28;1.52;;;16.20;85.20;;;;;;10909521;32;20030;-72
2023/05/17 00:54:34;;;;;;;1.52;1.15;;;16.10;85.20;;;;;;10908785;32;20398;-72
2023/05/17 01:00:51;;;;;;;1.73;1.33;;;16.10;85.40;;;;;;10908242;32;20362;-72
2023/05/17 01:06:53;;;;;;;1.00;0.88;;;16.20;85.30;;;;;;10908675;32;20019;-72
2023/05/17 01:13:30;;;;;;;0.80;0.80;;;16.20;85.20;;;;;;10903908;32;20020;-72
2023/05/17 01:20:05;;;;;;;1.17;0.90;;;16.20;85.20;;;;;;10877633;32;20035;-73
2023/05/17 01:26:46;;;;;;;1.08;0.90;;;16.20;85.10;;;;;;10908696;32;20011;-73
2023/05/17 01:32:59;;;;;;;2.12;1.00;;;16.20;85.20;;;;;;10792827;33;20033;-72
2023/05/17 01:39:02;;;;;;;0.82;0.60;;;16.20;85.20;;;;;;10792283;33;20067;-72
2023/05/17 01:45:16;;;;;;;0.60;0.60;;;16.10;85.20;;;;;;10793114;33;20427;-73
2023/05/17 01:51:39;;;;;;;1.48;0.88;;;16.00;85.00;;;;;;10791633;32;20012;-73
2023/05/17 01:57:43;;;;;;;0.60;0.60;;;16.00;85.20;;;;;;10792087;33;20090;-73
2023/05/17 02:03:49;;;;;;;0.85;0.80;;;16.00;85.20;;;;;;10793427;32;20020;-73
2023/05/17 02:09:51;;;;;;;0.68;0.68;;;16.00;85.30;;;;;;10864513;32;20043;-73
2023/05/17 02:15:53;;;;;;;0.82;0.75;;;16.00;85.30;;;;;;10855662;32;20299;-73
2023/05/17 02:21:55;;;;;;;1.15;0.80;;;16.00;85.30;;;;;;10866525;32;20020;-73
2023/05/17 02:27:57;;;;;;;3.35;0.82;;;16.00;85.20;;;;;;10868640;32;20378;-74
2023/05/17 02:33:59;;;;;;;0.60;0.60;;;16.00;85.10;;;;;;10868315;32;20032;-73
2023/05/17 02:40:01;;;;;;;0.70;0.70;;;16.00;85.20;;;;;;10868757;32;20016;-74
2023/05/17 02:46:03;;;;;;;1.58;0.68;;;16.00;85.20;;;;;;10867988;32;20024;-74
2023/05/17 02:52:05;;;;;;;0.80;0.80;;;16.00;85.20;;;;;;10876683;32;20413;-74
2023/05/17 02:58:07;;;;;;;0.75;0.75;;;15.90;85.20;;;;;;10905553;32;20049;-76
2023/05/17 03:04:09;;;;;;;1.00;0.93;;;15.90;85.10;;;;;;10904867;32;20026;-76
2023/05/17 03:10:11;;;;;;;0.93;0.93;;;15.90;85.20;;;;;;10904162;32;20046;-77
2023/05/17 03:16:14;;;;;;;0.60;0.60;;;15.80;85.20;;;;;;10904001;32;20096;-76
2023/05/17 03:22:16;;;;;;;0.62;0.62;;;15.90;85.10;;;;;;10891711;32;20034;-76
2023/05/17 03:28:19;;;;;;;2.97;0.95;;;15.80;85.10;;;;;;10904969;32;20011;-76
2023/05/17 03:34:21;;;;;;;0.70;0.70;;;15.80;85.20;;;;;;10911167;32;20027;-74
2023/05/17 03:40:23;;;;;;;0.60;0.60;;;15.70;85.20;;;;;;10911230;32;20325;-75
2023/05/17 03:46:25;;;;;;;0.70;0.70;;;15.70;85.20;;;;;;10911033;32;20015;-74
2023/05/17 03:52:27;;;;;;;0.88;0.80;;;15.70;85.20;;;;;;10898101;32;20019;-74
2023/05/17 03:58:29;;;;;;;0.75;0.75;;;15.60;85.30;;;;;;10906409;32;20054;-74
2023/05/17 04:04:31;;;;;;;3.20;0.70;;;15.60;85.30;;;;;;10884348;32;20036;-74
2023/05/17 04:10:34;;;;;;;0.70;0.70;;;15.60;85.40;;;;;;10910812;32;20406;-74
2023/05/17 04:16:38;;;;;;;0.60;0.60;;;15.60;85.40;;;;;;10897944;32;20018;-74
2023/05/17 04:22:40;;;;;;;0.62;0.60;;;15.60;85.40;;;;;;10909947;32;20329;-76
2023/05/17 04:28:44;;;;;;;1.05;0.80;;;15.60;85.40;;;;;;10910266;32;20019;-75
2023/05/17 04:34:46;;;;;;;0.75;0.75;;;15.60;85.50;;;;;;10906625;32;20023;-75
2023/05/17 04:40:50;;;;;;;2.22;1.52;;;15.60;85.40;;;;;;10910048;32;20007;-75
2023/05/17 04:47:51;;;;;;;0.80;0.80;;;15.60;85.40;;;;;;10831318;32;20047;-74
2023/05/17 04:53:53;;;;;;;0.77;0.77;;;15.60;85.40;;;;;;10830329;32;20054;-75
2023/05/17 04:59:56;;;;;;;1.10;0.93;;;15.60;85.40;;;;;;10831066;32;20363;-75
2023/05/17 05:05:59;;;;;;;0.93;0.90;;;15.50;85.40;;;;;;10814085;33;20062;-74
2023/05/17 05:12:01;;;;;;;1.67;0.95;;;15.60;85.40;;;;;;10830527;32;20032;-75
2023/05/17 05:18:05;;;;;;;2.37;1.17;;;15.60;85.40;;;;;;10830159;32;20023;-75
2023/05/17 05:24:08;;;;;;;0.60;0.60;;;15.60;85.30;;;;;;10881461;32;20424;-75
2023/05/17 05:30:11;;;;;;;1.10;0.60;;;15.60;85.40;;;;;;10907984;32;20307;-76
2023/05/17 05:36:13;;;;;;;0.98;0.80;;;15.50;85.40;;;;;;10907838;32;20046;-75
2023/05/17 05:42:16;;;;;;;1.23;1.02;;;15.50;85.30;;;;;;10892979;32;20023;-75
2023/05/17 05:48:21;;;;;;;0.60;0.60;;;15.50;85.10;;;;;;10906868;32;20042;-75
2023/05/17 05:54:24;;;;;;;0.60;0.60;;;15.40;85.20;;;;;;10906948;32;20015;-75
2023/05/17 06:00:27;;;;;;;0.62;0.60;;;15.50;85.20;;;;;;10906912;32;20148;-75
2023/05/17 06:06:30;;;;;;;10.68;1.70;;;15.60;85.30;;;;;;10887072;32;20105;-75
2023/05/17 06:12:31;;;;;;;0.98;0.98;;;15.70;85.40;;;;;;10867943;32;20016;-75
2023/05/17 06:18:33;;;;;;;1.15;0.90;;;15.70;85.40;;;;;;10869118;32;20016;-74
2023/05/17 06:24:36;;;;;;;1.12;1.02;;;15.70;85.60;;;;;;10865481;32;20019;-75
2023/05/17 06:30:40;;;;;;;1.23;1.15;;;15.80;85.50;;;;;;10853905;32;20054;-74
2023/05/17 06:36:54;;;;;;;1.15;0.95;;;15.80;85.50;;;;;;10868230;32;20028;-74
2023/05/17 06:42:56;;;;;;;1.62;1.35;;;15.80;85.50;;;;;;10869989;32;20023;-73
2023/05/17 06:48:58;;;;;;;0.88;0.82;;;15.80;85.50;;;;;;10935306;32;20191;-73
2023/05/17 06:55:01;;;;;;;1.50;1.27;;;15.80;85.40;;;;;;10942243;32;20022;-72
2023/05/17 07:01:25;;;;;;;0.90;0.80;;;15.80;85.30;;;;;;10928176;32;20444;-72
2023/05/17 07:07:27;;;;;;;1.83;1.20;;;15.80;85.30;;;;;;10941229;32;20011;-73
2023/05/17 07:13:29;;;;;;;1.17;1.08;;;15.80;85.20;;;;;;10941526;32;20027;-73
2023/05/17 07:19:32;;;;;;;1.75;1.40;;;15.80;85.30;;;;;;10941537;32;20011;-73
2023/05/17 07:25:43;;;;;;;0.85;0.85;;;15.80;85.20;;;;;;10929173;32;20077;-72
2023/05/17 07:32:11;;;;;;;2.00;1.35;;;15.80;85.10;;;;;;10942327;32;20011;-72
2023/05/17 07:38:13;;;;;;;4.22;2.40;;;15.90;85.20;;;;;;10941409;32;20015;-72
2023/05/17 07:44:17;;;;;;;2.80;2.05;;;15.90;85.00;;;;;;10942136;32;20045;-73
2023/05/17 07:50:19;;;;;;;6.07;2.15;;;16.00;85.00;;;;;;10730338;27;7032930;-73
2023/05/17 07:56:20;;;;;;;2.22;1.50;;;16.10;84.90;;;;;;10900616;32;20023;-72
2023/05/17 08:02:22;;;;;;;3.62;1.60;;;16.20;85.00;;;;;;10890788;32;20016;-72
2023/05/17 08:08:25;;;;;;;1.10;1.00;;;16.20;84.90;;;;;;10885927;32;20023;-72
2023/05/17 08:14:27;;;;;;;2.75;1.60;;;16.30;84.80;;;;;;10903034;32;20046;-72
2023/05/17 08:20:30;;;;;;;5.50;3.83;;;16.50;84.60;;;;;;10909359;32;20329;-73
2023/05/17 08:26:33;;;;;;;2.92;1.98;;;16.50;84.50;;;;;;10898448;32;20012;-72
2023/05/17 08:32:35;;;;;;;3.47;1.77;;;16.60;84.30;;;;;;10910377;32;20051;-72
2023/05/17 08:38:37;;;;;;;1.55;1.30;;;16.60;84.50;;;;;;10895292;32;20070;-73
2023/05/17 08:44:39;;;;;;;2.90;2.05;;;16.70;84.40;;;;;;10911276;32;20049;-72
2023/05/17 08:50:43;;;;;;;3.45;2.10;;;16.70;84.40;;;;;;10909235;32;20046;-73
2023/05/17 08:56:51;;;;;;;1.98;1.77;;;16.70;84.50;;;;;;10878635;32;20066;-73
2023/05/17 09:02:53;;;;;;;2.28;1.65;;;16.70;84.50;;;;;;10905025;32;20016;-72
2023/05/17 09:08:55;;;;;;;3.37;2.67;;;16.80;84.40;;;;;;10908820;32;20015;-73
2023/05/17 09:15:15;;;;;;;2.83;2.20;;;16.90;84.30;;;;;;10892294;32;20028;-73
2023/05/17 09:21:17;;;;;;;3.12;2.28;;;16.90;84.50;;;;;;10871470;32;20046;-72
2023/05/17 09:27:19;;;;;;;2.35;1.85;;;16.90;84.50;;;;;;10870932;32;20039;-73
2023/05/17 09:33:21;;;;;;;2.58;1.27;;;16.90;84.40;;;;;;10871012;32;20045;-72
2023/05/17 09:39:24;;;;;;;2.55;1.58;;;17.00;84.30;;;;;;10870220;32;20300;-72
2023/05/17 09:45:26;;;;;;;2.03;1.35;;;17.00;84.10;;;;;;10869517;32;20020;-73
2023/05/17 09:51:35;;;;;;;1.23;1.12;;;17.10;84.10;;;;;;10870327;32;20016;-73
2023/05/17 09:57:39;;;;;;;1.37;1.17;;;17.10;84.10;;;;;;10867286;32;20023;-73
2023/05/17 10:03:41;;;;;;;1.20;1.10;;;17.10;84.00;;;;;;10868903;32;20015;-73
2023/05/17 10:09:46;;;;;;;2.45;1.30;;;17.20;83.90;;;;;;10865840;32;20170;-73
2023/05/17 10:15:48;;;;;;;1.37;1.05;;;17.20;83.90;;;;;;10868635;32;20015;-73
2023/05/17 10:21:52;;;;;;;1.30;1.20;;;17.20;83.80;;;;;;10868242;32;20046;-72
2023/05/17 10:27:54;;;;;;;2.87;1.85;;;17.30;83.60;;;;;;10868655;32;20011;-72
2023/05/17 10:33:59;;;;;;;3.85;1.98;;;17.40;83.40;;;;;;10865047;32;20015;-73
2023/05/17 10:40:01;;;;;;;4.18;0.93;;;17.40;83.30;;;;;;10869273;32;20034;-73
2023/05/17 10:46:14;;;;;;;1.10;1.00;;;17.40;83.20;;;;;;10868621;32;20420;-72
2023/05/17 10:52:17;;;;;;;4.53;1.45;;;17.50;83.00;;;;;;10854992;32;20007;-73
2023/05/17 10:58:21;;;;;;;1.08;0.80;;;17.50;82.70;;;;;;10863219;32;20019;-73
2023/05/17 11:04:25;;;;;;;1.92;1.12;;;17.50;82.80;;;;;;10868020;32;20042;-73
2023/05/17 11:10:27;;;;;;;1.77;1.17;;;17.50;82.70;;;;;;10855754;32;20046;-73
2023/05/17 11:16:55;;;;;;;2.35;1.10;;;17.60;82.60;;;;;;10879233;32;20027;-73
2023/05/17 11:22:59;;;;;;;3.72;1.20;;;17.70;82.10;;;;;;10864649;32;20039;-73
2023/05/17 11:29:07;;;;;;;5.25;1.27;;;17.70;81.70;;;;;;10886329;32;20027;-72
2023/05/17 11:35:11;;;;;;;1.30;0.97;;;17.70;81.40;;;;;;10894852;32;20312;-73
2023/05/17 11:41:20;;;;;;;0.75;0.65;;;17.70;81.10;;;;;;10892360;32;20051;-73
2023/05/17 11:47:23;;;;;;;1.02;0.93;;;17.80;80.90;;;;;;10889325;32;20035;-73
2023/05/17 11:53:26;;;;;;;0.50;0.50;;;17.90;80.80;;;;;;10893196;32;20085;-74
2023/05/17 11:59:28;;;;;;;1.02;0.80;;;17.90;80.80;;;;;;10896342;32;20031;-73
2023/05/17 12:05:30;;;;;;;1.37;0.90;;;18.00;80.70;;;;;;10910384;32;20306;-73
2023/05/17 12:11:32;;;;;;;3.20;1.08;;;18.00;80.60;;;;;;10911333;32;20016;-74
2023/05/17 12:17:40;;;;;;;0.52;0.52;;;18.00;79.90;;;;;;10911259;32;20027;-73
2023/05/17 12:23:51;;;;;;;1.08;0.50;;;17.90;79.80;;;;;;10911358;32;20412;-73
2023/05/17 12:30:23;;;;;;;0.70;0.70;;;18.00;79.70;;;;;;10911301;32;20452;-74
2023/05/17 12:36:28;;;;;;;0.95;0.82;;;18.00;79.80;;;;;;10910515;32;20432;-72
2023/05/17 12:43:00;;;;;;;5.45;3.03;;;18.00;79.70;;;;;;10907775;32;20049;-73
2023/05/17 12:49:10;;;;;;;0.80;0.80;;;18.10;79.50;;;;;;10896712;32;20034;-72
2023/05/17 12:55:12;;;;;;;1.15;0.82;;;18.10;79.30;;;;;;10908657;32;20035;-73
2023/05/17 13:01:15;;;;;;;1.10;0.93;;;18.10;79.50;;;;;;10909663;32;20016;-73
2023/05/17 13:07:25;;;;;;;0.85;0.80;;;18.00;79.70;;;;;;10907896;32;20019;-73
2023/05/17 13:13:33;;;;;;;0.50;0.50;;;18.20;79.70;;;;;;10909719;32;20042;-74
2023/05/17 13:19:37;;;;;;;0.88;0.88;;;18.20;79.50;;;;;;10909011;32;20062;-73
2023/05/17 13:25:39;;;;;;;0.40;0.40;;;18.20;79.30;;;;;;10904339;32;20333;-73
2023/05/17 13:31:46;;;;;;;2.72;0.50;;;18.30;79.20;;;;;;10893693;32;20031;-74
2023/05/17 13:37:54;;;;;;;1.40;1.30;;;18.30;79.10;;;;;;10892964;32;20039;-73
2023/05/17 13:43:56;;;;;;;0.60;0.60;;;18.30;78.50;;;;;;10908158;32;20425;-73
2023/05/17 13:50:02;;;;;;;6.80;0.93;;;18.20;78.80;;;;;;10907823;32;20012;-72
2023/05/17 13:56:23;;;;;;;1.10;0.80;;;18.30;78.60;;;;;;10906617;32;20035;-73
2023/05/17 14:02:25;;;;;;;0.60;0.60;;;18.30;78.50;;;;;;10864530;32;20426;-74
2023/05/17 14:08:27;;;;;;;0.60;0.60;;;18.30;78.50;;;;;;10869101;32;20047;-72
2023/05/17 14:14:29;;;;;;;0.70;0.70;;;18.30;78.30;;;;;;10868169;32;20024;-72
2023/05/17 14:20:32;;;;;;;0.60;0.60;;;18.40;78.10;;;;;;10868870;32;20043;-72
2023/05/17 14:26:35;;;;;;;1.15;0.70;;;18.30;78.00;;;;;;10868600;32;20046;-73
2023/05/17 14:32:38;;;;;;;3.22;0.77;;;18.30;77.80;;;;;;10867928;32;20020;-73
2023/05/17 14:38:41;;;;;;;0.80;0.55;;;18.30;78.10;;;;;;10905976;32;20050;-74
2023/05/17 14:44:43;;;;;;;0.70;0.70;;;18.40;78.10;;;;;;10905468;32;20020;-73
2023/05/17 14:50:45;;;;;;;0.65;0.65;;;18.40;78.20;;;;;;10906060;32;20068;-74
2023/05/17 14:56:47;;;;;;;0.50;0.50;;;18.40;78.40;;;;;;10900935;32;20058;-73
2023/05/17 15:02:50;;;;;;;0.88;0.82;;;18.30;78.80;;;;;;10905349;32;20050;-73
2023/05/17 15:08:53;;;;;;;0.73;0.70;;;18.30;79.30;;;;;;10903398;32;20031;-72
2023/05/17 15:14:56;;;;;;;0.62;0.62;;;18.30;79.30;;;;;;10905082;32;20054;-73
2023/05/17 15:20:58;;;;;;;1.87;0.85;;;18.30;79.60;;;;;;10903517;32;20031;-72
2023/05/17 15:27:00;;;;;;;1.70;0.82;;;18.30;79.60;;;;;;10904136;32;20042;-73
2023/05/17 15:33:03;;;;;;;0.60;0.60;;;18.30;79.60;;;;;;10900028;32;20475;-73
2023/05/17 15:39:11;;;;;;;0.88;0.75;;;18.30;79.60;;;;;;10888027;32;20034;-73
2023/05/17 15:45:13;;;;;;;1.37;0.80;;;18.30;79.80;;;;;;10903451;32;20015;-73
2023/05/17 15:51:15;;;;;;;1.02;0.75;;;18.30;80.00;;;;;;10907209;27;20028;-73
2023/05/17 15:57:20;;;;;;;0.60;0.60;;;18.30;80.10;;;;;;10902850;32;20050;-73
2023/05/17 16:03:50;;;;;;;0.70;0.70;;;18.30;80.10;;;;;;10902336;32;20317;-73
2023/05/17 16:09:53;;;;;;;1.05;0.90;;;18.30;80.00;;;;;;10876530;32;20035;-73
2023/05/17 16:15:58;;;;;;;1.25;0.85;;;18.30;80.00;;;;;;10900341;32;20341;-73
2023/05/17 16:22:01;;;;;;;1.40;0.90;;;18.30;80.10;;;;;;10904625;32;20011;-73
2023/05/17 16:28:05;;;;;;;1.15;0.75;;;18.30;80.00;;;;;;10899278;32;20046;-73
2023/05/17 16:34:07;;;;;;;0.57;0.57;;;18.40;80.00;;;;;;10898150;32;20035;-73
2023/05/17 16:40:10;;;;;;;0.77;0.77;;;18.40;80.10;;;;;;10907791;32;20389;-73
2023/05/17 16:46:12;;;;;;;0.93;0.62;;;18.30;80.20;;;;;;10910223;32;20011;-73
2023/05/17 16:52:14;;;;;;;1.02;0.85;;;18.30;80.30;;;;;;10909564;32;20346;-73
2023/05/17 16:58:16;;;;;;;1.73;1.25;;;18.30;80.40;;;;;;10894699;32;20062;-73
2023/05/17 17:04:19;;;;;;;0.98;0.88;;;18.20;80.30;;;;;;10894465;32;20034;-73
2023/05/17 17:10:21;;;;;;;1.15;0.90;;;18.30;80.30;;;;;;10895861;32;20038;-73
2023/05/17 17:16:28;;;;;;;7.47;1.37;;;18.20;80.40;;;;;;10909160;32;20081;-73
2023/05/17 17:22:30;;;;;;;0.80;0.80;;;18.20;80.50;;;;;;10909023;32;20012;-73
2023/05/17 17:28:33;;;;;;;2.05;0.95;;;18.20;80.50;;;;;;10893907;32;20027;-73
2023/05/17 17:34:35;;;;;;;0.80;0.68;;;18.20;80.50;;;;;;10894709;32;20019;-73
2023/05/17 17:40:45;;;;;;;0.60;0.60;;;18.20;80.60;;;;;;10905789;32;20062;-73
2023/05/17 17:46:48;;;;;;;0.95;0.60;;;18.10;80.60;;;;;;10905201;32;20046;-73
2023/05/17 17:52:50;;;;;;;3.47;0.90;;;18.10;80.70;;;;;;10906966;32;20016;-73
2023/05/17 17:58:54;;;;;;;1.10;0.98;;;18.10;80.70;;;;;;10907571;32;20413;-73
2023/05/17 18:05:14;;;;;;;0.70;0.70;;;18.10;80.70;;;;;;10906622;32;20023;-73
2023/05/17 18:11:16;;;;;;;0.80;0.80;;;18.00;80.70;;;;;;10892160;32;20027;-73
2023/05/17 18:17:23;;;;;;;0.73;0.73;;;18.00;80.90;;;;;;10906885;32;20402;-73
2023/05/17 18:23:26;;;;;;;0.80;0.80;;;17.90;80.90;;;;;;10906092;32;20027;-73
2023/05/17 18:29:28;;;;;;;1.50;0.93;;;17.90;81.00;;;;;;10891578;32;20035;-73
2023/05/17 18:42:44;;;;;;;3.95;1.42;;;17.80;81.40;;;;;;10906193;32;20019;-73
2023/05/17 18:48:46;;;;;;;1.90;0.80;;;17.80;81.40;;;;;;10905395;32;20042;-73
2023/05/17 18:54:52;;;;;;;0.80;0.80;;;17.80;81.40;;;;;;10904711;32;20027;-73
2023/05/17 19:00:55;;;;;;;1.95;1.30;;;17.80;81.40;;;;;;10891685;32;20023;-73
2023/05/17 19:06:59;;;;;;;1.05;0.88;;;17.80;81.50;;;;;;10900602;32;20283;-73
2023/05/17 19:13:01;;;;;;;1.55;1.15;;;17.80;81.50;;;;;;10888068;32;20053;-73
2023/05/17 19:19:06;;;;;;;1.37;1.08;;;17.80;81.60;;;;;;10904672;32;20337;-73
2023/05/17 19:25:09;;;;;;;1.85;1.00;;;17.70;81.70;;;;;;10904303;32;20046;-73
2023/05/17 19:31:11;;;;;;;2.22;1.12;;;17.70;81.80;;;;;;10904929;32;20019;-73
2023/05/17 19:37:13;;;;;;;2.12;0.95;;;17.70;81.80;;;;;;10904780;32;20444;-73
2023/05/17 19:43:16;;;;;;;1.33;1.00;;;17.70;81.60;;;;;;10904759;32;20424;-74
2023/05/17 19:49:18;;;;;;;2.20;1.30;;;17.70;81.60;;;;;;10904675;32;20394;-73
2023/05/17 19:55:23;;;;;;;1.90;1.10;;;17.70;81.70;;;;;;10903292;32;20057;-74
2023/05/17 20:01:25;;;;;;;1.10;1.00;;;17.70;81.60;;;;;;10902460;32;20027;-74
2023/05/17 20:07:28;;;;;;;2.75;1.37;;;17.70;81.70;;;;;;10903690;32;20019;-73
2023/05/17 20:13:33;;;;;;;0.93;0.93;;;17.60;81.80;;;;;;10906717;32;20054;-73
2023/05/17 20:19:37;;;;;;;0.90;0.90;;;17.60;81.50;;;;;;10907024;32;20019;-73
2023/05/17 20:26:01;;;;;;;1.52;1.15;;;17.50;81.40;;;;;;10921124;32;20023;-73
2023/05/17 20:32:04;;;;;;;0.85;0.85;;;17.50;81.50;;;;;;10931250;32;20041;-73
2023/05/17 20:38:07;;;;;;;1.67;0.90;;;17.50;81.60;;;;;;10928923;32;20112;-73
2023/05/17 20:44:11;;;;;;;1.45;0.80;;;17.50;81.60;;;;;;10934656;32;20011;-73
2023/05/17 20:50:15;;;;;;;0.80;0.70;;;17.50;81.80;;;;;;10947203;32;20058;-73
2023/05/17 20:56:18;;;;;;;1.15;0.80;;;17.50;81.90;;;;;;10947605;32;20019;-72
2023/05/17 21:02:23;;;;;;;1.40;1.20;;;17.50;81.80;;;;;;10934098;32;20042;-74
2023/05/17 21:08:27;;;;;;;0.88;0.80;;;17.40;81.90;;;;;;10947387;32;20022;-73
2023/05/17 21:14:29;;;;;;;1.90;1.25;;;17.30;81.80;;;;;;10934221;32;20042;-73
2023/05/17 21:20:35;;;;;;;1.25;0.52;;;17.30;81.90;;;;;;10946860;32;20006;-73
2023/05/17 21:26:38;;;;;;;1.58;0.70;;;17.30;81.90;;;;;;10930507;32;20065;-73
2023/05/17 21:32:43;;;;;;;8.35;0.98;;;17.30;82.00;;;;;;10945268;32;20037;-73
2023/05/17 21:38:47;;;;;;;1.73;0.68;;;17.30;81.90;;;;;;10946105;32;20092;-73
2023/05/17 21:44:49;;;;;;;2.10;1.27;;;17.30;82.00;;;;;;10945982;32;20329;-73
2023/05/17 21:50:52;;;;;;;0.60;0.60;;;17.30;82.10;;;;;;10941432;32;20026;-73
2023/05/17 21:56:54;;;;;;;0.82;0.80;;;17.30;82.10;;;;;;10931605;32;20034;-73
2023/05/17 22:02:56;;;;;;;0.50;0.50;;;17.30;82.20;;;;;;10945265;32;20037;-72
2023/05/17 22:08:58;;;;;;;0.60;0.60;;;17.30;82.20;;;;;;10945078;32;20038;-72
2023/05/17 22:15:01;;;;;;;1.52;0.80;;;17.30;82.10;;;;;;10944808;32;20023;-73
2023/05/17 22:21:03;;;;;;;2.53;0.95;;;17.20;81.80;;;;;;10944633;32;20027;-72
2023/05/17 22:27:05;;;;;;;0.80;0.80;;;17.10;81.80;;;;;;10943811;32;20023;-73
2023/05/17 22:33:07;;;;;;;1.00;0.70;;;17.10;82.00;;;;;;10943009;32;20051;-73
2023/05/17 22:39:09;;;;;;;2.42;0.82;;;17.10;82.00;;;;;;10943412;32;20345;-73
2023/05/17 22:45:13;;;;;;;1.02;0.90;;;17.00;82.00;;;;;;10942595;32;20019;-72
2023/05/17 22:51:17;;;;;;;2.25;0.80;;;17.00;82.00;;;;;;10942358;32;20061;-73
2023/05/17 22:57:19;;;;;;;1.00;0.68;;;17.00;82.10;;;;;;10942278;32;20096;-73
2023/05/17 23:03:21;;;;;;;2.08;0.70;;;17.00;82.10;;;;;;10943396;32;20019;-73
2023/05/17 23:09:22;;;;;;;0.80;0.80;;;17.00;82.20;;;;;;10941937;32;20061;-73
2023/05/17 23:15:25;;;;;;;1.27;0.77;;;17.00;82.20;;;;;;10942371;32;20019;-73
2023/05/17 23:21:32;;;;;;;0.68;0.68;;;17.00;82.20;;;;;;10942740;32;20125;-73
2023/05/17 23:27:34;;;;;;;0.80;0.80;;;17.00;82.30;;;;;;10942704;32;20025;-73
2023/05/17 23:33:37;;;;;;;1.12;1.00;;;16.90;82.40;;;;;;10928843;32;20049;-73
2023/05/17 23:39:46;;;;;;;0.68;0.50;;;16.80;82.60;;;;;;10927243;32;20066;-73
2023/05/17 23:45:52;;;;;;;3.03;0.68;;;16.80;82.60;;;;;;10942330;32;20054;-73
2023/05/17 23:51:54;;;;;;;1.27;1.17;;;16.80;82.70;;;;;;10939874;27;20035;-73
2023/05/17 23:57:57;;;;;;;4.03;1.75;;;16.70;82.70;;;;;;10905683;32;20049;-73
